sensor_id;sensor_type;location;lat;lon;timestamp;P1;durP1;ratioP1;P2;durP2;ratioP2
51146;SDS011;37207;53.060;18.726;2022-10-16T00:01:20;51.50;;;43.10;;
51146;SDS011;37207;53.060;18.726;2022-10-16T00:03:49;47.60;;;42.20;;
51146;SDS011;37207;53.060;18.726;2022-10-16T00:06:17;46.10;;;41.10;;
51146;SDS011;37207;53.060;18.726;2022-10-16T00:08:46;52.60;;;42.70;;
51146;SDS011;37207;53.060;18.726;2022-10-16T00:11:17;50.20;;;41.60;;
51146;SDS011;37207;53.060;18.726;2022-10-16T00:13:47;52.20;;;41.40;;
51146;SDS011;37207;53.060;18.726;2022-10-16T00:16:16;53.20;;;42.20;;
51146;SDS011;37207;53.060;18.726;2022-10-16T00:18:43;48.20;;;42.80;;
51146;SDS011;37207;53.060;18.726;2022-10-16T00:21:17;51.30;;;41.80;;
51146;SDS011;37207;53.060;18.726;2022-10-16T00:23:46;50.50;;;41.50;;
51146;SDS011;37207;53.060;18.726;2022-10-16T00:26:16;47.30;;;42.00;;
51146;SDS011;37207;53.060;18.726;2022-10-16T00:28:47;52.10;;;41.30;;
51146;SDS011;37207;53.060;18.726;2022-10-16T00:31:16;47.00;;;40.40;;
51146;SDS011;37207;53.060;18.726;2022-10-16T00:33:43;46.90;;;41.00;;
51146;SDS011;37207;53.060;18.726;2022-10-16T00:36:11;52.60;;;41.50;;
51146;SDS011;37207;53.060;18.726;2022-10-16T00:38:40;50.40;;;41.80;;
51146;SDS011;37207;53.060;18.726;2022-10-16T00:41:07;50.00;;;41.60;;
51146;SDS011;37207;53.060;18.726;2022-10-16T00:46:55;49.00;;;42.40;;
51146;SDS011;37207;53.060;18.726;2022-10-16T00:49:12;49.60;;;42.00;;
51146;SDS011;37207;53.060;18.726;2022-10-16T00:51:42;51.80;;;43.00;;
51146;SDS011;37207;53.060;18.726;2022-10-16T00:54:13;48.90;;;41.90;;
51146;SDS011;37207;53.060;18.726;2022-10-16T00:56:43;48.00;;;42.10;;
51146;SDS011;37207;53.060;18.726;2022-10-16T00:59:16;54.20;;;43.50;;
51146;SDS011;37207;53.060;18.726;2022-10-16T01:01:45;52.30;;;43.30;;
51146;SDS011;37207;53.060;18.726;2022-10-16T01:04:12;55.10;;;42.10;;
51146;SDS011;37207;53.060;18.726;2022-10-16T01:17:17;55.30;;;45.60;;
51146;SDS011;37207;53.060;18.726;2022-10-16T01:23:01;55.30;;;45.10;;
51146;SDS011;37207;53.060;18.726;2022-10-16T01:28:32;53.90;;;45.00;;
51146;SDS011;37207;53.060;18.726;2022-10-16T01:31:05;54.40;;;46.50;;
51146;SDS011;37207;53.060;18.726;2022-10-16T01:33:40;55.90;;;47.20;;
51146;SDS011;37207;53.060;18.726;2022-10-16T01:36:11;51.10;;;44.50;;
51146;SDS011;37207;53.060;18.726;2022-10-16T01:38:42;56.60;;;45.80;;
51146;SDS011;37207;53.060;18.726;2022-10-16T01:41:18;51.10;;;44.80;;
51146;SDS011;37207;53.060;18.726;2022-10-16T01:44:03;52.90;;;46.40;;
51146;SDS011;37207;53.060;18.726;2022-10-16T01:46:35;53.00;;;47.00;;
51146;SDS011;37207;53.060;18.726;2022-10-16T01:49:04;54.50;;;47.30;;
51146;SDS011;37207;53.060;18.726;2022-10-16T01:51:32;56.90;;;48.30;;
51146;SDS011;37207;53.060;18.726;2022-10-16T01:54:00;57.80;;;48.50;;
51146;SDS011;37207;53.060;18.726;2022-10-16T01:56:29;54.90;;;46.30;;
51146;SDS011;37207;53.060;18.726;2022-10-16T01:58:57;59.20;;;47.70;;
51146;SDS011;37207;53.060;18.726;2022-10-16T02:01:29;56.50;;;48.30;;
51146;SDS011;37207;53.060;18.726;2022-10-16T02:04:07;61.30;;;47.10;;
51146;SDS011;37207;53.060;18.726;2022-10-16T02:06:38;52.20;;;46.50;;
51146;SDS011;37207;53.060;18.726;2022-10-16T02:09:04;66.20;;;49.20;;
51146;SDS011;37207;53.060;18.726;2022-10-16T02:11:31;59.80;;;47.50;;
51146;SDS011;37207;53.060;18.726;2022-10-16T02:13:58;57.00;;;49.30;;
51146;SDS011;37207;53.060;18.726;2022-10-16T02:16:37;57.90;;;48.10;;
51146;SDS011;37207;53.060;18.726;2022-10-16T02:19:06;59.00;;;48.00;;
51146;SDS011;37207;53.060;18.726;2022-10-16T02:21:44;57.60;;;48.10;;
51146;SDS011;37207;53.060;18.726;2022-10-16T02:27:10;60.30;;;48.20;;
51146;SDS011;37207;53.060;18.726;2022-10-16T02:29:42;58.50;;;48.70;;
51146;SDS011;37207;53.060;18.726;2022-10-16T02:32:15;58.70;;;45.80;;
51146;SDS011;37207;53.060;18.726;2022-10-16T02:34:46;56.90;;;48.40;;
51146;SDS011;37207;53.060;18.726;2022-10-16T02:39:42;56.50;;;48.30;;
51146;SDS011;37207;53.060;18.726;2022-10-16T02:42:11;58.70;;;47.60;;
51146;SDS011;37207;53.060;18.726;2022-10-16T02:44:39;60.20;;;49.10;;
51146;SDS011;37207;53.060;18.726;2022-10-16T02:47:06;54.60;;;46.10;;
51146;SDS011;37207;53.060;18.726;2022-10-16T02:49:32;55.00;;;47.10;;
51146;SDS011;37207;53.060;18.726;2022-10-16T02:51:59;53.40;;;46.30;;
51146;SDS011;37207;53.060;18.726;2022-10-16T02:54:25;55.90;;;47.00;;
51146;SDS011;37207;53.060;18.726;2022-10-16T02:56:52;57.20;;;47.30;;
51146;SDS011;37207;53.060;18.726;2022-10-16T02:59:18;52.40;;;46.40;;
51146;SDS011;37207;53.060;18.726;2022-10-16T03:01:45;52.70;;;45.30;;
51146;SDS011;37207;53.060;18.726;2022-10-16T03:04:12;55.20;;;46.50;;
51146;SDS011;37207;53.060;18.726;2022-10-16T03:06:38;55.10;;;46.70;;
51146;SDS011;37207;53.060;18.726;2022-10-16T03:09:05;52.90;;;45.10;;
51146;SDS011;37207;53.060;18.726;2022-10-16T03:11:31;54.60;;;45.50;;
51146;SDS011;37207;53.060;18.726;2022-10-16T03:13:58;60.80;;;46.60;;
51146;SDS011;37207;53.060;18.726;2022-10-16T03:16:24;51.30;;;45.40;;
51146;SDS011;37207;53.060;18.726;2022-10-16T03:18:51;56.30;;;44.50;;
51146;SDS011;37207;53.060;18.726;2022-10-16T03:21:17;50.90;;;45.10;;
51146;SDS011;37207;53.060;18.726;2022-10-16T03:23:44;52.60;;;44.80;;
51146;SDS011;37207;53.060;18.726;2022-10-16T03:26:11;48.50;;;43.30;;
51146;SDS011;37207;53.060;18.726;2022-10-16T03:28:37;48.20;;;43.10;;
51146;SDS011;37207;53.060;18.726;2022-10-16T03:31:04;60.30;;;43.00;;
51146;SDS011;37207;53.060;18.726;2022-10-16T03:33:30;51.50;;;45.90;;
51146;SDS011;37207;53.060;18.726;2022-10-16T03:35:57;54.20;;;45.40;;
51146;SDS011;37207;53.060;18.726;2022-10-16T03:38:24;49.70;;;44.30;;
51146;SDS011;37207;53.060;18.726;2022-10-16T03:40:50;54.70;;;45.50;;
51146;SDS011;37207;53.060;18.726;2022-10-16T03:43:17;56.10;;;45.60;;
51146;SDS011;37207;53.060;18.726;2022-10-16T03:45:43;57.90;;;45.30;;
51146;SDS011;37207;53.060;18.726;2022-10-16T03:48:10;50.50;;;42.70;;
51146;SDS011;37207;53.060;18.726;2022-10-16T03:50:37;52.20;;;43.70;;
51146;SDS011;37207;53.060;18.726;2022-10-16T03:53:03;46.70;;;41.30;;
51146;SDS011;37207;53.060;18.726;2022-10-16T03:55:30;47.20;;;42.00;;
51146;SDS011;37207;53.060;18.726;2022-10-16T03:57:57;49.10;;;40.30;;
51146;SDS011;37207;53.060;18.726;2022-10-16T04:00:23;46.30;;;39.60;;
51146;SDS011;37207;53.060;18.726;2022-10-16T04:02:50;46.40;;;40.50;;
51146;SDS011;37207;53.060;18.726;2022-10-16T04:05:16;44.90;;;38.50;;
51146;SDS011;37207;53.060;18.726;2022-10-16T04:07:43;41.70;;;37.50;;
51146;SDS011;37207;53.060;18.726;2022-10-16T04:10:09;44.10;;;37.20;;
51146;SDS011;37207;53.060;18.726;2022-10-16T04:12:36;38.70;;;34.70;;
51146;SDS011;37207;53.060;18.726;2022-10-16T04:15:03;40.00;;;35.40;;
51146;SDS011;37207;53.060;18.726;2022-10-16T04:17:29;40.20;;;35.90;;
51146;SDS011;37207;53.060;18.726;2022-10-16T04:19:56;38.10;;;34.40;;
51146;SDS011;37207;53.060;18.726;2022-10-16T04:22:22;38.30;;;34.40;;
51146;SDS011;37207;53.060;18.726;2022-10-16T04:24:49;37.80;;;33.80;;
51146;SDS011;37207;53.060;18.726;2022-10-16T04:27:15;36.50;;;32.90;;
51146;SDS011;37207;53.060;18.726;2022-10-16T04:29:42;35.90;;;32.50;;
51146;SDS011;37207;53.060;18.726;2022-10-16T04:32:09;37.00;;;33.10;;
51146;SDS011;37207;53.060;18.726;2022-10-16T04:34:36;35.40;;;31.70;;
51146;SDS011;37207;53.060;18.726;2022-10-16T04:37:04;37.00;;;32.50;;
51146;SDS011;37207;53.060;18.726;2022-10-16T04:39:31;34.10;;;30.80;;
51146;SDS011;37207;53.060;18.726;2022-10-16T04:41:57;35.90;;;32.20;;
51146;SDS011;37207;53.060;18.726;2022-10-16T04:44:24;34.20;;;30.90;;
51146;SDS011;37207;53.060;18.726;2022-10-16T04:46:50;34.20;;;30.90;;
51146;SDS011;37207;53.060;18.726;2022-10-16T04:49:17;31.10;;;28.20;;
51146;SDS011;37207;53.060;18.726;2022-10-16T04:51:44;32.00;;;28.90;;
51146;SDS011;37207;53.060;18.726;2022-10-16T04:54:11;31.90;;;28.90;;
51146;SDS011;37207;53.060;18.726;2022-10-16T04:56:38;33.10;;;29.80;;
51146;SDS011;37207;53.060;18.726;2022-10-16T04:59:13;31.80;;;28.70;;
51146;SDS011;37207;53.060;18.726;2022-10-16T05:01:41;35.50;;;28.60;;
51146;SDS011;37207;53.060;18.726;2022-10-16T05:04:07;29.10;;;26.60;;
51146;SDS011;37207;53.060;18.726;2022-10-16T05:06:36;33.30;;;27.10;;
51146;SDS011;37207;53.060;18.726;2022-10-16T05:09:05;29.10;;;26.50;;
51146;SDS011;37207;53.060;18.726;2022-10-16T05:11:32;28.50;;;25.80;;
51146;SDS011;37207;53.060;18.726;2022-10-16T05:13:59;28.50;;;25.60;;
51146;SDS011;37207;53.060;18.726;2022-10-16T05:16:26;28.00;;;25.50;;
51146;SDS011;37207;53.060;18.726;2022-10-16T05:18:53;28.30;;;25.60;;
51146;SDS011;37207;53.060;18.726;2022-10-16T05:21:20;27.80;;;25.40;;
51146;SDS011;37207;53.060;18.726;2022-10-16T05:23:46;27.70;;;25.30;;
51146;SDS011;37207;53.060;18.726;2022-10-16T05:26:13;27.00;;;24.60;;
51146;SDS011;37207;53.060;18.726;2022-10-16T05:28:40;25.30;;;23.30;;
51146;SDS011;37207;53.060;18.726;2022-10-16T05:31:07;26.80;;;24.00;;
51146;SDS011;37207;53.060;18.726;2022-10-16T05:33:35;25.20;;;23.10;;
51146;SDS011;37207;53.060;18.726;2022-10-16T05:36:06;24.60;;;22.50;;
51146;SDS011;37207;53.060;18.726;2022-10-16T05:38:34;25.10;;;21.90;;
51146;SDS011;37207;53.060;18.726;2022-10-16T05:41:02;23.00;;;20.80;;
51146;SDS011;37207;53.060;18.726;2022-10-16T05:43:31;23.20;;;21.30;;
51146;SDS011;37207;53.060;18.726;2022-10-16T05:46:03;24.00;;;21.90;;
51146;SDS011;37207;53.060;18.726;2022-10-16T05:48:31;27.40;;;24.20;;
51146;SDS011;37207;53.060;18.726;2022-10-16T05:50:59;27.20;;;24.40;;
51146;SDS011;37207;53.060;18.726;2022-10-16T05:53:33;26.30;;;23.80;;
51146;SDS011;37207;53.060;18.726;2022-10-16T05:56:02;25.80;;;23.40;;
51146;SDS011;37207;53.060;18.726;2022-10-16T05:58:35;25.30;;;22.60;;
51146;SDS011;37207;53.060;18.726;2022-10-16T06:01:04;23.60;;;21.40;;
51146;SDS011;37207;53.060;18.726;2022-10-16T06:03:34;23.50;;;21.30;;
51146;SDS011;37207;53.060;18.726;2022-10-16T06:06:11;21.30;;;19.60;;
51146;SDS011;37207;53.060;18.726;2022-10-16T06:08:40;22.20;;;20.20;;
51146;SDS011;37207;53.060;18.726;2022-10-16T06:11:09;21.70;;;19.80;;
51146;SDS011;37207;53.060;18.726;2022-10-16T06:13:37;22.10;;;19.90;;
51146;SDS011;37207;53.060;18.726;2022-10-16T06:16:05;22.80;;;20.60;;
51146;SDS011;37207;53.060;18.726;2022-10-16T06:18:32;21.00;;;19.30;;
51146;SDS011;37207;53.060;18.726;2022-10-16T06:20:59;19.60;;;17.90;;
51146;SDS011;37207;53.060;18.726;2022-10-16T06:23:28;19.80;;;18.10;;
51146;SDS011;37207;53.060;18.726;2022-10-16T06:28:29;19.00;;;17.30;;
51146;SDS011;37207;53.060;18.726;2022-10-16T06:31:02;18.80;;;17.30;;
51146;SDS011;37207;53.060;18.726;2022-10-16T06:33:30;18.60;;;16.90;;
51146;SDS011;37207;53.060;18.726;2022-10-16T06:36:00;17.40;;;16.20;;
51146;SDS011;37207;53.060;18.726;2022-10-16T06:38:31;17.20;;;15.70;;
51146;SDS011;37207;53.060;18.726;2022-10-16T06:40:58;17.20;;;16.00;;
51146;SDS011;37207;53.060;18.726;2022-10-16T06:43:25;17.30;;;15.60;;
51146;SDS011;37207;53.060;18.726;2022-10-16T06:45:53;15.00;;;14.10;;
51146;SDS011;37207;53.060;18.726;2022-10-16T06:48:23;15.40;;;14.50;;
51146;SDS011;37207;53.060;18.726;2022-10-16T06:51:11;14.90;;;13.90;;
51146;SDS011;37207;53.060;18.726;2022-10-16T06:53:40;17.30;;;14.80;;
51146;SDS011;37207;53.060;18.726;2022-10-16T06:58:43;14.80;;;13.90;;
51146;SDS011;37207;53.060;18.726;2022-10-16T07:01:11;14.60;;;13.40;;
51146;SDS011;37207;53.060;18.726;2022-10-16T07:03:39;14.10;;;13.00;;
51146;SDS011;37207;53.060;18.726;2022-10-16T07:06:09;15.80;;;14.40;;
51146;SDS011;37207;53.060;18.726;2022-10-16T07:08:38;16.30;;;14.20;;
51146;SDS011;37207;53.060;18.726;2022-10-16T07:11:10;15.60;;;14.30;;
51146;SDS011;37207;53.060;18.726;2022-10-16T07:13:40;14.00;;;13.00;;
51146;SDS011;37207;53.060;18.726;2022-10-16T07:16:12;15.10;;;13.70;;
51146;SDS011;37207;53.060;18.726;2022-10-16T07:18:41;13.10;;;12.10;;
51146;SDS011;37207;53.060;18.726;2022-10-16T07:21:13;14.70;;;13.00;;
51146;SDS011;37207;53.060;18.726;2022-10-16T07:23:40;13.50;;;12.50;;
51146;SDS011;37207;53.060;18.726;2022-10-16T07:26:08;14.30;;;13.00;;
51146;SDS011;37207;53.060;18.726;2022-10-16T07:28:35;12.30;;;11.50;;
51146;SDS011;37207;53.060;18.726;2022-10-16T07:31:06;13.50;;;12.60;;
51146;SDS011;37207;53.060;18.726;2022-10-16T07:33:37;12.80;;;11.80;;
51146;SDS011;37207;53.060;18.726;2022-10-16T07:36:05;12.30;;;11.40;;
51146;SDS011;37207;53.060;18.726;2022-10-16T07:38:32;12.30;;;11.60;;
51146;SDS011;37207;53.060;18.726;2022-10-16T07:43:27;13.50;;;12.60;;
51146;SDS011;37207;53.060;18.726;2022-10-16T07:45:54;12.40;;;11.40;;
51146;SDS011;37207;53.060;18.726;2022-10-16T07:48:22;12.00;;;11.10;;
51146;SDS011;37207;53.060;18.726;2022-10-16T07:50:49;12.50;;;11.60;;
51146;SDS011;37207;53.060;18.726;2022-10-16T07:53:16;12.80;;;12.00;;
51146;SDS011;37207;53.060;18.726;2022-10-16T07:55:43;12.30;;;11.50;;
51146;SDS011;37207;53.060;18.726;2022-10-16T07:58:09;12.60;;;11.40;;
51146;SDS011;37207;53.060;18.726;2022-10-16T08:00:36;12.30;;;11.30;;
51146;SDS011;37207;53.060;18.726;2022-10-16T08:03:03;12.10;;;11.10;;
51146;SDS011;37207;53.060;18.726;2022-10-16T08:05:31;10.80;;;10.20;;
51146;SDS011;37207;53.060;18.726;2022-10-16T08:08:00;10.20;;;9.50;;
51146;SDS011;37207;53.060;18.726;2022-10-16T08:10:28;9.70;;;8.90;;
51146;SDS011;37207;53.060;18.726;2022-10-16T08:12:55;10.20;;;9.60;;
51146;SDS011;37207;53.060;18.726;2022-10-16T08:15:22;10.70;;;9.90;;
51146;SDS011;37207;53.060;18.726;2022-10-16T08:17:56;10.20;;;9.60;;
51146;SDS011;37207;53.060;18.726;2022-10-16T08:20:24;9.40;;;8.80;;
51146;SDS011;37207;53.060;18.726;2022-10-16T08:22:52;10.90;;;9.30;;
51146;SDS011;37207;53.060;18.726;2022-10-16T08:25:20;9.30;;;8.60;;
51146;SDS011;37207;53.060;18.726;2022-10-16T08:27:48;9.80;;;9.00;;
51146;SDS011;37207;53.060;18.726;2022-10-16T08:30:16;8.40;;;7.80;;
51146;SDS011;37207;53.060;18.726;2022-10-16T08:32:44;8.10;;;7.30;;
51146;SDS011;37207;53.060;18.726;2022-10-16T08:35:11;8.50;;;8.00;;
51146;SDS011;37207;53.060;18.726;2022-10-16T08:37:38;8.50;;;7.90;;
51146;SDS011;37207;53.060;18.726;2022-10-16T08:40:06;8.40;;;7.80;;
51146;SDS011;37207;53.060;18.726;2022-10-16T08:42:47;8.00;;;7.50;;
51146;SDS011;37207;53.060;18.726;2022-10-16T08:51:08;7.10;;;6.60;;
51146;SDS011;37207;53.060;18.726;2022-10-16T08:56:11;7.80;;;7.30;;
51146;SDS011;37207;53.060;18.726;2022-10-16T08:58:37;6.80;;;6.30;;
51146;SDS011;37207;53.060;18.726;2022-10-16T09:01:04;6.60;;;6.20;;
51146;SDS011;37207;53.060;18.726;2022-10-16T09:09:09;6.00;;;5.60;;
51146;SDS011;37207;53.060;18.726;2022-10-16T09:17:42;5.30;;;4.90;;
51146;SDS011;37207;53.060;18.726;2022-10-16T09:25:30;5.70;;;5.40;;
51146;SDS011;37207;53.060;18.726;2022-10-16T09:27:58;5.70;;;5.30;;
51146;SDS011;37207;53.060;18.726;2022-10-16T09:30:26;6.10;;;5.20;;
51146;SDS011;37207;53.060;18.726;2022-10-16T09:32:57;6.40;;;5.90;;
51146;SDS011;37207;53.060;18.726;2022-10-16T09:35:32;7.00;;;6.50;;
51146;SDS011;37207;53.060;18.726;2022-10-16T09:37:59;6.30;;;5.80;;
51146;SDS011;37207;53.060;18.726;2022-10-16T09:40:29;5.90;;;5.60;;
51146;SDS011;37207;53.060;18.726;2022-10-16T09:48:22;6.20;;;5.70;;
51146;SDS011;37207;53.060;18.726;2022-10-16T09:50:55;5.20;;;4.90;;
51146;SDS011;37207;53.060;18.726;2022-10-16T09:53:24;7.30;;;5.00;;
51146;SDS011;37207;53.060;18.726;2022-10-16T09:56:01;5.60;;;5.20;;
51146;SDS011;37207;53.060;18.726;2022-10-16T09:58:30;5.10;;;4.80;;
51146;SDS011;37207;53.060;18.726;2022-10-16T10:00:56;5.50;;;5.10;;
51146;SDS011;37207;53.060;18.726;2022-10-16T10:03:33;5.90;;;5.20;;
51146;SDS011;37207;53.060;18.726;2022-10-16T10:06:05;6.00;;;5.50;;
51146;SDS011;37207;53.060;18.726;2022-10-16T10:08:53;6.00;;;5.60;;
51146;SDS011;37207;53.060;18.726;2022-10-16T10:16:52;5.70;;;5.40;;
51146;SDS011;37207;53.060;18.726;2022-10-16T10:19:28;5.80;;;5.30;;
51146;SDS011;37207;53.060;18.726;2022-10-16T10:21:55;5.50;;;5.10;;
51146;SDS011;37207;53.060;18.726;2022-10-16T10:24:21;6.30;;;5.50;;
51146;SDS011;37207;53.060;18.726;2022-10-16T10:29:39;4.70;;;4.40;;
51146;SDS011;37207;53.060;18.726;2022-10-16T10:35:20;10.00;;;7.10;;
51146;SDS011;37207;53.060;18.726;2022-10-16T10:43:27;10.40;;;9.60;;
51146;SDS011;37207;53.060;18.726;2022-10-16T10:46:03;7.70;;;7.20;;
51146;SDS011;37207;53.060;18.726;2022-10-16T10:52:11;5.10;;;4.80;;
51146;SDS011;37207;53.060;18.726;2022-10-16T10:54:50;5.60;;;5.20;;
51146;SDS011;37207;53.060;18.726;2022-10-16T10:57:39;4.80;;;4.50;;
51146;SDS011;37207;53.060;18.726;2022-10-16T11:06:22;7.80;;;5.40;;
51146;SDS011;37207;53.060;18.726;2022-10-16T11:08:53;9.40;;;8.60;;
51146;SDS011;37207;53.060;18.726;2022-10-16T11:11:37;12.20;;;11.00;;
51146;SDS011;37207;53.060;18.726;2022-10-16T11:14:19;14.80;;;13.30;;
51146;SDS011;37207;53.060;18.726;2022-10-16T11:24:51;6.50;;;5.50;;
51146;SDS011;37207;53.060;18.726;2022-10-16T11:27:27;11.30;;;7.60;;
51146;SDS011;37207;53.060;18.726;2022-10-16T11:30:22;6.40;;;6.00;;
51146;SDS011;37207;53.060;18.726;2022-10-16T11:35:47;6.10;;;5.50;;
51146;SDS011;37207;53.060;18.726;2022-10-16T11:41:28;4.50;;;4.20;;
51146;SDS011;37207;53.060;18.726;2022-10-16T11:46:38;7.00;;;6.40;;
51146;SDS011;37207;53.060;18.726;2022-10-16T11:49:15;5.60;;;5.20;;
51146;SDS011;37207;53.060;18.726;2022-10-16T11:57:35;7.40;;;6.80;;
51146;SDS011;37207;53.060;18.726;2022-10-16T12:00:19;7.50;;;6.90;;
51146;SDS011;37207;53.060;18.726;2022-10-16T12:05:29;6.80;;;6.30;;
51146;SDS011;37207;53.060;18.726;2022-10-16T12:08:06;12.00;;;11.00;;
51146;SDS011;37207;53.060;18.726;2022-10-16T12:13:49;9.90;;;9.10;;
51146;SDS011;37207;53.060;18.726;2022-10-16T12:16:06;6.50;;;6.00;;
51146;SDS011;37207;53.060;18.726;2022-10-16T12:18:33;7.30;;;6.80;;
51146;SDS011;37207;53.060;18.726;2022-10-16T12:20:59;8.10;;;7.30;;
51146;SDS011;37207;53.060;18.726;2022-10-16T12:23:51;10.90;;;9.90;;
51146;SDS011;37207;53.060;18.726;2022-10-16T12:26:24;6.30;;;5.90;;
51146;SDS011;37207;53.060;18.726;2022-10-16T12:28:55;9.50;;;6.00;;
51146;SDS011;37207;53.060;18.726;2022-10-16T12:31:43;7.00;;;6.50;;
51146;SDS011;37207;53.060;18.726;2022-10-16T12:34:21;8.60;;;7.80;;
51146;SDS011;37207;53.060;18.726;2022-10-16T12:36:53;7.30;;;6.80;;
51146;SDS011;37207;53.060;18.726;2022-10-16T12:39:22;6.60;;;6.10;;
51146;SDS011;37207;53.060;18.726;2022-10-16T12:42:01;7.70;;;7.10;;
51146;SDS011;37207;53.060;18.726;2022-10-16T12:44:33;9.20;;;8.60;;
51146;SDS011;37207;53.060;18.726;2022-10-16T12:47:01;6.90;;;6.20;;
51146;SDS011;37207;53.060;18.726;2022-10-16T12:49:30;6.80;;;6.20;;
51146;SDS011;37207;53.060;18.726;2022-10-16T12:52:00;7.90;;;5.50;;
51146;SDS011;37207;53.060;18.726;2022-10-16T12:54:28;15.60;;;13.80;;
51146;SDS011;37207;53.060;18.726;2022-10-16T13:00:00;25.30;;;22.80;;
51146;SDS011;37207;53.060;18.726;2022-10-16T13:07:56;11.70;;;10.70;;
51146;SDS011;37207;53.060;18.726;2022-10-16T13:30:09;6.50;;;6.10;;
51146;SDS011;37207;53.060;18.726;2022-10-16T13:32:44;7.20;;;6.50;;
51146;SDS011;37207;53.060;18.726;2022-10-16T13:35:20;6.90;;;6.50;;
51146;SDS011;37207;53.060;18.726;2022-10-16T13:38:03;7.10;;;6.50;;
51146;SDS011;37207;53.060;18.726;2022-10-16T13:43:19;7.00;;;6.60;;
51146;SDS011;37207;53.060;18.726;2022-10-16T13:45:56;23.80;;;21.20;;
51146;SDS011;37207;53.060;18.726;2022-10-16T13:48:24;13.10;;;12.00;;
51146;SDS011;37207;53.060;18.726;2022-10-16T13:50:58;14.10;;;12.90;;
51146;SDS011;37207;53.060;18.726;2022-10-16T13:53:45;16.90;;;15.40;;
51146;SDS011;37207;53.060;18.726;2022-10-16T13:56:16;10.40;;;9.40;;
51146;SDS011;37207;53.060;18.726;2022-10-16T13:58:57;10.70;;;9.80;;
51146;SDS011;37207;53.060;18.726;2022-10-16T14:01:25;25.00;;;23.00;;
51146;SDS011;37207;53.060;18.726;2022-10-16T14:04:01;25.00;;;22.50;;
51146;SDS011;37207;53.060;18.726;2022-10-16T14:06:31;37.70;;;33.90;;
51146;SDS011;37207;53.060;18.726;2022-10-16T14:09:00;38.00;;;34.20;;
51146;SDS011;37207;53.060;18.726;2022-10-16T14:11:32;19.50;;;17.70;;
51146;SDS011;37207;53.060;18.726;2022-10-16T14:14:00;24.40;;;22.00;;
51146;SDS011;37207;53.060;18.726;2022-10-16T14:16:29;14.30;;;13.10;;
51146;SDS011;37207;53.060;18.726;2022-10-16T14:19:01;12.20;;;11.10;;
51146;SDS011;37207;53.060;18.726;2022-10-16T14:21:31;13.00;;;11.90;;
51146;SDS011;37207;53.060;18.726;2022-10-16T14:23:59;12.40;;;11.60;;
51146;SDS011;37207;53.060;18.726;2022-10-16T14:26:41;9.10;;;8.50;;
51146;SDS011;37207;53.060;18.726;2022-10-16T14:29:18;10.00;;;9.00;;
51146;SDS011;37207;53.060;18.726;2022-10-16T14:31:55;8.40;;;7.80;;
51146;SDS011;37207;53.060;18.726;2022-10-16T14:39:34;19.40;;;7.80;;
51146;SDS011;37207;53.060;18.726;2022-10-16T14:42:01;6.70;;;6.10;;
51146;SDS011;37207;53.060;18.726;2022-10-16T14:44:30;6.80;;;6.30;;
51146;SDS011;37207;53.060;18.726;2022-10-16T14:47:06;5.70;;;5.30;;
51146;SDS011;37207;53.060;18.726;2022-10-16T14:49:35;8.10;;;6.60;;
51146;SDS011;37207;53.060;18.726;2022-10-16T14:52:04;6.90;;;6.40;;
51146;SDS011;37207;53.060;18.726;2022-10-16T14:54:34;8.00;;;7.30;;
51146;SDS011;37207;53.060;18.726;2022-10-16T14:57:01;9.50;;;7.80;;
51146;SDS011;37207;53.060;18.726;2022-10-16T14:59:35;11.40;;;7.70;;
51146;SDS011;37207;53.060;18.726;2022-10-16T15:02:15;8.60;;;8.00;;
51146;SDS011;37207;53.060;18.726;2022-10-16T15:04:46;9.00;;;8.30;;
51146;SDS011;37207;53.060;18.726;2022-10-16T15:07:14;9.70;;;8.50;;
51146;SDS011;37207;53.060;18.726;2022-10-16T15:09:40;11.40;;;8.30;;
51146;SDS011;37207;53.060;18.726;2022-10-16T15:12:07;11.10;;;9.70;;
51146;SDS011;37207;53.060;18.726;2022-10-16T15:14:33;11.90;;;10.70;;
51146;SDS011;37207;53.060;18.726;2022-10-16T15:17:00;11.20;;;10.40;;
51146;SDS011;37207;53.060;18.726;2022-10-16T15:19:27;11.20;;;10.00;;
51146;SDS011;37207;53.060;18.726;2022-10-16T15:21:53;11.10;;;10.00;;
51146;SDS011;37207;53.060;18.726;2022-10-16T15:24:20;11.30;;;9.50;;
51146;SDS011;37207;53.060;18.726;2022-10-16T15:26:47;11.80;;;11.00;;
51146;SDS011;37207;53.060;18.726;2022-10-16T15:29:15;10.70;;;9.90;;
51146;SDS011;37207;53.060;18.726;2022-10-16T15:31:42;11.30;;;9.80;;
51146;SDS011;37207;53.060;18.726;2022-10-16T15:34:09;11.70;;;10.70;;
51146;SDS011;37207;53.060;18.726;2022-10-16T15:36:37;11.40;;;10.60;;
51146;SDS011;37207;53.060;18.726;2022-10-16T15:41:38;9.70;;;8.90;;
51146;SDS011;37207;53.060;18.726;2022-10-16T15:44:04;9.40;;;8.60;;
51146;SDS011;37207;53.060;18.726;2022-10-16T15:46:31;7.70;;;7.20;;
51146;SDS011;37207;53.060;18.726;2022-10-16T15:49:00;9.30;;;7.90;;
51146;SDS011;37207;53.060;18.726;2022-10-16T15:51:27;7.40;;;6.60;;
51146;SDS011;37207;53.060;18.726;2022-10-16T15:56:23;12.90;;;7.20;;
51146;SDS011;37207;53.060;18.726;2022-10-16T15:58:51;7.30;;;6.70;;
51146;SDS011;37207;53.060;18.726;2022-10-16T16:01:20;7.80;;;6.70;;
51146;SDS011;37207;53.060;18.726;2022-10-16T16:03:47;11.10;;;7.60;;
51146;SDS011;37207;53.060;18.726;2022-10-16T16:06:19;8.90;;;8.30;;
51146;SDS011;37207;53.060;18.726;2022-10-16T16:08:46;8.60;;;7.70;;
51146;SDS011;37207;53.060;18.726;2022-10-16T16:11:14;8.50;;;7.80;;
51146;SDS011;37207;53.060;18.726;2022-10-16T16:13:42;8.40;;;7.80;;
51146;SDS011;37207;53.060;18.726;2022-10-16T16:16:20;8.60;;;7.80;;
51146;SDS011;37207;53.060;18.726;2022-10-16T16:18:46;7.70;;;7.20;;
51146;SDS011;37207;53.060;18.726;2022-10-16T16:21:15;8.20;;;7.50;;
51146;SDS011;37207;53.060;18.726;2022-10-16T16:23:42;9.30;;;7.90;;
51146;SDS011;37207;53.060;18.726;2022-10-16T16:26:18;10.30;;;7.40;;
51146;SDS011;37207;53.060;18.726;2022-10-16T16:28:53;8.70;;;7.90;;
51146;SDS011;37207;53.060;18.726;2022-10-16T16:31:25;13.70;;;10.40;;
51146;SDS011;37207;53.060;18.726;2022-10-16T16:33:53;15.20;;;12.50;;
51146;SDS011;37207;53.060;18.726;2022-10-16T16:36:20;15.00;;;13.50;;
51146;SDS011;37207;53.060;18.726;2022-10-16T16:38:46;15.30;;;13.90;;
51146;SDS011;37207;53.060;18.726;2022-10-16T16:41:14;15.30;;;13.40;;
51146;SDS011;37207;53.060;18.726;2022-10-16T16:43:42;14.50;;;13.50;;
51146;SDS011;37207;53.060;18.726;2022-10-16T16:46:09;17.40;;;16.10;;
51146;SDS011;37207;53.060;18.726;2022-10-16T16:48:36;16.50;;;14.90;;
51146;SDS011;37207;53.060;18.726;2022-10-16T16:51:07;14.30;;;13.20;;
51146;SDS011;37207;53.060;18.726;2022-10-16T16:53:42;14.80;;;13.70;;
51146;SDS011;37207;53.060;18.726;2022-10-16T16:56:09;13.80;;;13.00;;
51146;SDS011;37207;53.060;18.726;2022-10-16T16:58:36;14.40;;;13.10;;
51146;SDS011;37207;53.060;18.726;2022-10-16T17:01:03;15.20;;;13.80;;
51146;SDS011;37207;53.060;18.726;2022-10-16T17:03:31;14.10;;;13.00;;
51146;SDS011;37207;53.060;18.726;2022-10-16T17:06:03;16.00;;;13.40;;
51146;SDS011;37207;53.060;18.726;2022-10-16T17:08:32;14.80;;;13.70;;
51146;SDS011;37207;53.060;18.726;2022-10-16T17:13:28;17.40;;;16.10;;